createdAt,value
2022-11-08T00:00:38.030Z,9.27
2022-11-08T00:01:41.489Z,7.87
2022-11-08T00:02:44.490Z,10.23
2022-11-08T00:03:46.281Z,6.93
2022-11-08T00:04:47.987Z,6.67
2022-11-08T00:06:08.488Z,6.37
2022-11-08T00:07:30.484Z,7.37
2022-11-08T00:08:50.859Z,9.63
2022-11-08T00:10:10.941Z,6.37
2022-11-08T00:11:31.463Z,9.13
2022-11-08T00:12:51.789Z,11.83
2022-11-08T00:13:59.942Z,7.67
2022-11-08T00:15:02.097Z,8.00
2022-11-08T00:16:03.809Z,8.30
2022-11-08T00:17:05.558Z,7.10
2022-11-08T00:18:07.800Z,7.20
2022-11-08T00:19:09.485Z,5.70
2022-11-08T00:20:11.453Z,7.60
2022-11-08T00:21:14.947Z,7.73
2022-11-08T00:22:17.223Z,10.83
2022-11-08T00:23:18.981Z,8.43
2022-11-08T00:24:20.731Z,7.22
2022-11-08T00:25:22.767Z,8.53
2022-11-08T00:26:24.539Z,5.83
2022-11-08T00:27:26.877Z,10.03
2022-11-08T00:28:28.587Z,6.73
2022-11-08T00:29:30.336Z,9.60
2022-11-08T00:30:31.992Z,7.87
2022-11-08T00:31:33.672Z,6.53
2022-11-08T00:32:35.410Z,9.67
2022-11-08T00:33:37.482Z,7.17
2022-11-08T00:34:39.222Z,6.87
2022-11-08T00:35:40.920Z,6.33
2022-11-08T00:36:42.621Z,5.87
2022-11-08T00:37:44.318Z,4.73
2022-11-08T00:38:46.229Z,7.13
2022-11-08T00:39:49.908Z,8.17
2022-11-08T00:40:51.646Z,5.77
2022-11-08T00:41:53.305Z,6.57
2022-11-08T00:42:57.581Z,4.87
2022-11-08T00:43:59.248Z,5.30
2022-11-08T00:45:01.069Z,8.13
2022-11-08T00:46:03.014Z,5.43
2022-11-08T00:47:05.196Z,4.73
2022-11-08T00:48:06.954Z,8.00
2022-11-08T00:49:10.325Z,5.53
2022-11-08T00:50:12.005Z,6.37
2022-11-08T00:51:13.954Z,5.60
2022-11-08T00:52:15.632Z,7.60
2022-11-08T00:53:17.779Z,6.50
2022-11-08T00:54:21.002Z,7.17
2022-11-08T00:55:22.682Z,8.13
2022-11-08T00:56:24.529Z,7.17
2022-11-08T00:57:46.935Z,6.00
2022-11-08T00:58:47.836Z,7.13
2022-11-08T00:59:49.481Z,5.47
2022-11-08T01:00:51.183Z,6.70
2022-11-08T01:01:53.096Z,6.43
2022-11-08T01:03:13.711Z,6.20
2022-11-08T01:04:18.635Z,5.93
2022-11-08T01:05:20.346Z,6.20
2022-11-08T01:06:24.887Z,10.33
2022-11-08T01:07:26.624Z,5.47
2022-11-08T01:08:28.289Z,7.67
2022-11-08T01:09:30.015Z,8.17
2022-11-08T01:10:31.995Z,5.87
2022-11-08T01:11:33.772Z,6.23
2022-11-08T01:12:35.435Z,6.03
2022-11-08T01:13:37.229Z,6.73
2022-11-08T01:14:38.889Z,5.77
2022-11-08T01:15:42.928Z,8.10
2022-11-08T01:16:45.308Z,6.23
2022-11-08T01:17:46.969Z,5.80
2022-11-08T01:18:50.273Z,6.53
2022-11-08T01:19:51.988Z,9.33
2022-11-08T01:20:53.680Z,7.17
2022-11-08T01:21:55.350Z,6.77
2022-11-08T01:22:57.010Z,10.60
2022-11-08T01:24:00.757Z,9.30
2022-11-08T01:25:04.886Z,9.90
2022-11-08T01:26:10.806Z,6.97
2022-11-08T01:27:12.546Z,6.37
2022-11-08T01:28:15.149Z,7.90
2022-11-08T01:29:17.069Z,8.80
2022-11-08T01:30:20.315Z,9.23
2022-11-08T01:31:25.395Z,7.73
2022-11-08T01:32:31.118Z,8.77
2022-11-08T01:33:34.020Z,8.83
2022-11-08T01:34:36.539Z,11.40
2022-11-08T01:35:38.595Z,9.67
2022-11-08T01:36:40.763Z,10.70
2022-11-08T01:37:42.460Z,7.00
2022-11-08T01:38:44.240Z,8.47
2022-11-08T01:39:47.181Z,10.00
2022-11-08T01:40:49.666Z,7.70
2022-11-08T01:41:51.359Z,10.33
2022-11-08T01:42:53.242Z,9.07
2022-11-08T01:43:59.753Z,11.73
2022-11-08T01:45:04.676Z,8.97
2022-11-08T01:46:18.410Z,7.93
2022-11-08T01:47:20.084Z,9.97
2022-11-08T01:48:22.975Z,10.10
2022-11-08T01:49:27.379Z,11.43
2022-11-08T01:50:29.255Z,10.27
2022-11-08T01:51:39.748Z,11.30
2022-11-08T01:52:54.560Z,10.33
2022-11-08T01:53:57.432Z,8.00
2022-11-08T01:55:23.036Z,13.87
2022-11-08T01:56:25.065Z,9.90
2022-11-08T01:57:49.545Z,7.63
2022-11-08T01:58:52.852Z,8.77
2022-11-08T01:59:58.666Z,9.10
2022-11-08T02:01:02.200Z,9.50
2022-11-08T02:02:04.996Z,7.00
2022-11-08T02:03:11.552Z,6.77
2022-11-08T02:04:15.452Z,7.83
2022-11-08T02:05:25.252Z,9.17
2022-11-08T02:06:28.853Z,8.47
2022-11-08T02:07:32.131Z,14.53
2022-11-08T02:08:38.270Z,19.13
2022-11-08T02:09:43.397Z,10.60
2022-11-08T02:10:49.561Z,8.93
2022-11-08T02:11:52.774Z,6.30
2022-11-08T02:12:55.000Z,9.13
2022-11-08T02:13:57.895Z,11.07
2022-11-08T02:15:00.025Z,7.77
2022-11-08T02:16:01.888Z,9.57
2022-11-08T02:17:03.970Z,8.07
2022-11-08T02:18:06.440Z,10.27
2022-11-08T02:19:14.706Z,10.23
2022-11-08T02:20:16.551Z,8.13
2022-11-08T02:21:21.493Z,9.80
2022-11-08T02:22:30.816Z,10.07
2022-11-08T02:23:55.445Z,10.47
2022-11-08T02:25:00.439Z,12.17
2022-11-08T02:26:02.493Z,9.73
2022-11-08T02:27:04.866Z,8.60
2022-11-08T02:28:06.607Z,7.60
2022-11-08T02:29:32.340Z,9.93
2022-11-08T02:30:38.571Z,10.77
2022-11-08T02:31:40.230Z,8.97
2022-11-08T02:32:42.819Z,9.10
2022-11-08T02:33:45.750Z,7.40
2022-11-08T02:34:52.890Z,8.63
2022-11-08T02:35:56.544Z,10.60
2022-11-08T02:36:59.649Z,9.27
2022-11-08T02:38:01.430Z,10.23
2022-11-08T02:39:03.364Z,12.10
2022-11-08T02:40:05.880Z,8.07
2022-11-08T02:41:08.058Z,8.73
2022-11-08T02:42:14.458Z,7.77
2022-11-08T02:43:16.555Z,10.53
2022-11-08T02:44:18.277Z,11.00
2022-11-08T02:45:19.980Z,8.67
2022-11-08T02:46:21.642Z,9.73
2022-11-08T02:47:24.181Z,8.63
2022-11-08T02:48:26.608Z,10.33
2022-11-08T02:49:28.486Z,10.43
2022-11-08T02:50:30.171Z,12.53
2022-11-08T02:51:31.914Z,9.00
2022-11-08T02:52:33.834Z,8.80
2022-11-08T02:53:35.795Z,9.00
2022-11-08T02:54:37.675Z,8.60
2022-11-08T02:55:39.453Z,10.33
2022-11-08T02:56:41.385Z,9.67
2022-11-08T02:57:43.067Z,12.13
2022-11-08T02:58:44.734Z,10.67
2022-11-08T02:59:46.459Z,11.77
2022-11-08T03:00:48.275Z,8.30
2022-11-08T03:01:50.097Z,9.33
2022-11-08T03:02:56.223Z,9.00
2022-11-08T03:03:58.035Z,9.57
2022-11-08T03:04:59.690Z,9.43
2022-11-08T03:06:01.426Z,9.73
2022-11-08T03:07:03.117Z,10.10
2022-11-08T03:08:05.109Z,14.57
2022-11-08T03:09:07.340Z,8.90
2022-11-08T03:10:09.570Z,13.53
2022-11-08T03:11:11.365Z,9.97
2022-11-08T03:12:13.390Z,8.73
2022-11-08T03:13:15.161Z,10.23
2022-11-08T03:14:16.921Z,11.27
2022-11-08T03:15:18.641Z,23.33
2022-11-08T03:16:20.358Z,13.70
2022-11-08T03:17:22.037Z,12.83
2022-11-08T03:18:23.717Z,13.43
2022-11-08T03:19:25.673Z,10.30
2022-11-08T03:20:32.425Z,12.23
2022-11-08T03:21:36.630Z,9.10
2022-11-08T03:22:38.332Z,10.77
2022-11-08T03:23:40.009Z,11.27
2022-11-08T03:24:41.638Z,9.97
2022-11-08T03:25:43.291Z,13.50
2022-11-08T03:26:44.982Z,13.37
2022-11-08T03:27:46.688Z,12.20
2022-11-08T03:28:48.326Z,11.03
2022-11-08T03:29:50.039Z,12.40
2022-11-08T03:30:53.146Z,12.60
2022-11-08T03:31:54.828Z,13.83
2022-11-08T03:32:56.517Z,9.77
2022-11-08T03:33:58.184Z,11.87
2022-11-08T03:35:01.369Z,9.37
2022-11-08T03:36:03.182Z,10.30
2022-11-08T03:37:06.164Z,11.40
2022-11-08T03:38:07.835Z,11.43
2022-11-08T03:39:11.611Z,9.70
2022-11-08T03:40:13.419Z,11.57
2022-11-08T03:41:15.160Z,9.93
2022-11-08T03:42:17.103Z,11.50
2022-11-08T03:43:18.892Z,9.57
2022-11-08T03:44:20.655Z,11.43
2022-11-08T03:45:22.359Z,15.07
2022-11-08T03:46:24.062Z,11.50
2022-11-08T03:47:25.781Z,9.73
2022-11-08T03:48:27.449Z,10.33
2022-11-08T03:49:29.134Z,7.93
2022-11-08T03:50:30.874Z,12.33
2022-11-08T03:51:32.549Z,8.00
2022-11-08T03:52:45.713Z,9.70
2022-11-08T03:53:47.380Z,8.93
2022-11-08T03:54:49.133Z,8.67
2022-11-08T03:55:50.790Z,9.53
2022-11-08T03:56:52.608Z,12.90
2022-11-08T03:57:54.811Z,11.83
2022-11-08T03:58:56.465Z,9.63
2022-11-08T03:59:58.170Z,8.03
2022-11-08T04:01:04.745Z,9.00
2022-11-08T04:02:06.539Z,11.57
2022-11-08T04:03:09.234Z,9.40
2022-11-08T04:04:10.929Z,8.63
2022-11-08T04:05:13.904Z,8.47
2022-11-08T04:06:15.765Z,10.10
2022-11-08T04:07:17.488Z,8.03
2022-11-08T04:08:19.692Z,10.00
2022-11-08T04:09:21.885Z,11.93
2022-11-08T04:10:23.609Z,8.57
2022-11-08T04:11:44.111Z,10.43
2022-11-08T04:13:04.341Z,7.43
2022-11-08T04:14:24.797Z,10.03
2022-11-08T04:15:27.687Z,11.53
2022-11-08T04:16:32.422Z,9.23
2022-11-08T04:17:53.390Z,8.93
2022-11-08T04:19:13.854Z,8.57
2022-11-08T04:20:34.424Z,7.77
2022-11-08T04:21:47.910Z,9.00
2022-11-08T04:22:49.570Z,7.73
2022-11-08T04:23:52.488Z,7.77
2022-11-08T04:24:54.148Z,7.13
2022-11-08T04:26:00.925Z,7.50
2022-11-08T04:27:03.692Z,7.83
2022-11-08T04:28:05.463Z,7.67
2022-11-08T04:29:09.218Z,8.13
2022-11-08T04:30:11.809Z,9.10
2022-11-08T04:31:16.312Z,15.57
2022-11-08T04:32:18.051Z,8.87
2022-11-08T04:33:19.774Z,10.67
2022-11-08T04:34:21.913Z,11.40
2022-11-08T04:35:23.857Z,9.70
2022-11-08T04:36:26.287Z,8.53
2022-11-08T04:37:27.940Z,12.57
2022-11-08T04:38:30.728Z,9.23
2022-11-08T04:39:32.450Z,11.50
2022-11-08T04:40:34.134Z,11.20
2022-11-08T04:41:36.113Z,7.23
2022-11-08T04:42:37.772Z,9.03
2022-11-08T04:43:39.907Z,13.40
2022-11-08T04:44:41.632Z,9.30
2022-11-08T04:45:43.319Z,7.93
2022-11-08T04:46:45.053Z,8.17
2022-11-08T04:47:48.432Z,7.30
2022-11-08T04:48:52.439Z,9.83
2022-11-08T04:49:54.389Z,10.37
2022-11-08T04:50:56.655Z,7.13
2022-11-08T04:51:59.051Z,8.17
2022-11-08T04:53:01.279Z,9.03
2022-11-08T04:54:06.325Z,9.23
2022-11-08T04:55:09.181Z,9.20
2022-11-08T04:56:14.074Z,9.17
2022-11-08T04:57:16.337Z,8.47
2022-11-08T04:58:18.309Z,8.93
2022-11-08T04:59:20.304Z,7.10
2022-11-08T05:00:22.102Z,11.53
2022-11-08T05:01:26.373Z,6.27
2022-11-08T05:02:28.278Z,6.63
2022-11-08T05:03:31.066Z,9.00
2022-11-08T05:04:32.768Z,7.60
2022-11-08T05:05:34.455Z,10.80
2022-11-08T05:06:36.195Z,6.00
2022-11-08T05:07:38.040Z,6.73
2022-11-08T05:08:40.586Z,7.40
2022-11-08T05:09:42.554Z,8.57
2022-11-08T05:10:44.230Z,8.50
2022-11-08T05:11:45.927Z,6.93
2022-11-08T05:12:47.593Z,7.17
2022-11-08T05:13:50.285Z,7.87
2022-11-08T05:14:51.980Z,7.70
2022-11-08T05:15:53.650Z,8.23
2022-11-08T05:16:55.392Z,13.73
2022-11-08T05:17:57.965Z,7.47
2022-11-08T05:19:00.209Z,8.20
2022-11-08T05:20:20.655Z,11.70
2022-11-08T05:21:41.875Z,9.73
2022-11-08T05:23:02.371Z,8.87
2022-11-08T05:24:06.059Z,16.30
2022-11-08T05:25:08.297Z,8.13
2022-11-08T05:26:10.635Z,10.40
2022-11-08T05:27:12.324Z,8.67
2022-11-08T05:28:14.255Z,11.47
2022-11-08T05:29:16.789Z,8.83
2022-11-08T05:30:18.486Z,9.10
2022-11-08T05:31:20.692Z,10.17
2022-11-08T05:32:22.404Z,9.30
2022-11-08T05:33:25.178Z,8.63
2022-11-08T05:34:26.839Z,10.43
2022-11-08T05:35:28.510Z,11.23
2022-11-08T05:36:30.257Z,9.80
2022-11-08T05:37:31.942Z,10.70
2022-11-08T05:38:34.235Z,9.20
2022-11-08T05:39:35.911Z,8.27
2022-11-08T05:40:37.588Z,10.60
2022-11-08T05:41:39.370Z,9.83
2022-11-08T05:42:41.235Z,13.83
2022-11-08T05:43:44.994Z,11.20
2022-11-08T05:44:46.756Z,10.33
2022-11-08T05:45:48.711Z,11.47
2022-11-08T05:46:50.381Z,9.57
2022-11-08T05:47:52.165Z,10.13
2022-11-08T05:48:54.197Z,8.20
2022-11-08T05:49:55.940Z,13.30
2022-11-08T05:50:57.764Z,10.20
2022-11-08T05:51:59.468Z,10.67
2022-11-08T05:53:01.481Z,11.90
2022-11-08T05:54:03.243Z,12.73
2022-11-08T05:55:05.888Z,10.17
2022-11-08T05:56:08.302Z,11.87
2022-11-08T05:57:10.085Z,8.47
2022-11-08T05:58:11.803Z,10.67
2022-11-08T05:59:13.479Z,9.90
2022-11-08T06:00:15.413Z,8.63
2022-11-08T06:01:19.896Z,8.30
2022-11-08T06:02:21.922Z,11.63
2022-11-08T06:03:24.194Z,8.50
2022-11-08T06:04:26.123Z,9.33
2022-11-08T06:05:27.980Z,9.37
2022-11-08T06:06:29.852Z,8.77
2022-11-08T06:07:31.602Z,8.10
2022-11-08T06:08:33.350Z,7.57
2022-11-08T06:09:35.072Z,10.93
2022-11-08T06:10:36.746Z,6.10
2022-11-08T06:11:38.535Z,8.03
2022-11-08T06:12:40.320Z,8.87
2022-11-08T06:13:42.257Z,7.67
2022-11-08T06:14:44.100Z,8.27
2022-11-08T06:15:45.777Z,10.30
2022-11-08T06:16:47.510Z,8.27
2022-11-08T06:17:49.196Z,7.50
2022-11-08T06:18:51.146Z,7.97
2022-11-08T06:19:53.419Z,9.27
2022-11-08T06:20:55.416Z,8.17
2022-11-08T06:21:57.073Z,9.20
2022-11-08T06:22:58.808Z,8.47
2022-11-08T06:24:00.529Z,7.90
2022-11-08T06:25:02.525Z,8.40
2022-11-08T06:26:04.289Z,9.53
2022-11-08T06:27:06.100Z,12.20
2022-11-08T06:28:07.785Z,6.77
2022-11-08T06:29:09.988Z,9.67
2022-11-08T06:30:12.219Z,8.43
2022-11-08T06:31:13.968Z,8.87
2022-11-08T06:32:15.668Z,8.27
2022-11-08T06:33:17.762Z,8.70
2022-11-08T06:34:19.668Z,13.47
2022-11-08T06:35:21.410Z,12.23
2022-11-08T06:36:23.165Z,7.87
2022-11-08T06:37:24.848Z,7.03
2022-11-08T06:38:26.988Z,9.37
2022-11-08T06:39:28.682Z,9.93
2022-11-08T06:40:32.307Z,7.60
2022-11-08T06:41:34.503Z,8.90
2022-11-08T06:42:36.187Z,11.37
2022-11-08T06:43:37.836Z,13.07
2022-11-08T06:44:39.561Z,13.33
2022-11-08T06:45:41.672Z,8.03
2022-11-08T06:46:43.519Z,8.30
2022-11-08T06:47:45.390Z,7.80
2022-11-08T06:48:47.154Z,8.23
2022-11-08T06:49:48.815Z,8.57
2022-11-08T06:50:50.537Z,10.50
2022-11-08T06:51:52.696Z,11.13
2022-11-08T06:53:02.659Z,11.97
2022-11-08T06:54:08.727Z,26.13
2022-11-08T06:55:10.727Z,14.03
2022-11-08T06:56:13.137Z,20.20
2022-11-08T06:57:14.919Z,14.93
2022-11-08T06:58:16.616Z,16.90
2022-11-08T06:59:18.325Z,22.63
2022-11-08T07:00:20.354Z,25.73
2022-11-08T07:01:22.098Z,18.30
2022-11-08T07:02:23.973Z,16.93
2022-11-08T07:03:25.772Z,13.63
2022-11-08T07:04:27.476Z,14.23
2022-11-08T07:05:31.072Z,18.83
2022-11-08T07:06:33.182Z,15.13
2022-11-08T07:07:34.913Z,13.80
2022-11-08T07:08:36.779Z,16.57
2022-11-08T07:09:38.717Z,16.60
2022-11-08T07:10:40.757Z,12.43
2022-11-08T07:11:42.430Z,16.77
2022-11-08T07:12:44.352Z,14.97
2022-11-08T07:13:47.420Z,13.77
2022-11-08T07:14:49.145Z,12.07
2022-11-08T07:15:50.821Z,15.83
2022-11-08T07:16:52.477Z,12.43
2022-11-08T07:17:54.336Z,16.97
2022-11-08T07:18:56.165Z,16.10
2022-11-08T07:19:57.939Z,13.67
2022-11-08T07:21:01.195Z,13.50
2022-11-08T07:22:03.597Z,15.13
2022-11-08T07:23:05.976Z,14.37
2022-11-08T07:24:07.744Z,15.57
2022-11-08T07:25:09.518Z,17.00
2022-11-08T07:26:13.116Z,17.87
2022-11-08T07:27:14.839Z,18.50
2022-11-08T07:28:18.368Z,17.90
2022-11-08T07:29:20.056Z,16.87
2022-11-08T07:30:22.039Z,16.93
2022-11-08T07:31:24.880Z,17.07
2022-11-08T07:32:26.652Z,17.13
2022-11-08T07:33:28.616Z,18.40
2022-11-08T07:34:31.534Z,18.43
2022-11-08T07:35:33.619Z,16.10
2022-11-08T07:36:35.284Z,16.13
2022-11-08T07:37:36.969Z,16.23
2022-11-08T07:38:38.741Z,16.40
2022-11-08T07:39:40.420Z,19.50
2022-11-08T07:40:42.335Z,19.00
2022-11-08T07:41:44.040Z,19.57
2022-11-08T07:43:15.765Z,18.73
2022-11-08T07:44:07.657Z,18.60
2022-11-08T07:45:10.740Z,17.70
2022-11-08T07:46:12.417Z,16.73
2022-11-08T07:47:14.088Z,16.27
2022-11-08T07:48:15.754Z,17.67
2022-11-08T07:49:17.428Z,17.17
2022-11-08T07:50:19.354Z,17.23
2022-11-08T07:51:21.111Z,19.13
2022-11-08T07:52:22.922Z,21.90
2022-11-08T07:53:24.846Z,18.57
2022-11-08T07:54:26.576Z,19.07
2022-11-08T07:55:28.349Z,17.27
2022-11-08T07:56:30.431Z,18.80
2022-11-08T07:57:32.156Z,22.83
2022-11-08T07:58:34.493Z,17.93
2022-11-08T07:59:36.214Z,18.40
2022-11-08T08:00:39.915Z,18.70
2022-11-08T08:01:41.687Z,19.10
2022-11-08T08:02:43.849Z,19.27
2022-11-08T08:03:45.554Z,22.40
2022-11-08T08:04:47.255Z,24.67
2022-11-08T08:05:56.791Z,22.40
2022-11-08T08:07:01.368Z,19.90
2022-11-08T08:08:03.876Z,23.50
2022-11-08T08:09:05.670Z,21.77
2022-11-08T08:10:07.826Z,18.03
2022-11-08T08:11:10.165Z,18.73
2022-11-08T08:12:12.036Z,21.03
2022-11-08T08:13:14.257Z,19.67
2022-11-08T08:14:16.000Z,18.27
2022-11-08T08:15:17.810Z,17.40
2022-11-08T08:16:19.568Z,19.07
2022-11-08T08:17:21.298Z,20.27
2022-11-08T08:18:22.949Z,22.30
2022-11-08T08:19:24.659Z,21.37
2022-11-08T08:20:26.365Z,19.87
2022-11-08T08:21:28.087Z,17.80
2022-11-08T08:22:29.740Z,18.47
2022-11-08T08:23:31.409Z,19.07
2022-11-08T08:24:33.096Z,18.90
2022-11-08T08:25:35.020Z,16.97
2022-11-08T08:26:36.890Z,18.17
2022-11-08T08:27:38.609Z,17.63
2022-11-08T08:28:40.298Z,17.60
2022-11-08T08:29:42.081Z,16.97
2022-11-08T08:30:43.756Z,17.47
2022-11-08T08:31:45.446Z,18.37
2022-11-08T08:33:02.181Z,19.70
2022-11-08T08:34:09.923Z,18.33
2022-11-08T08:35:12.534Z,17.90
2022-11-08T08:36:14.447Z,18.43
2022-11-08T08:37:17.316Z,19.58
2022-11-08T08:38:19.229Z,17.43
2022-11-08T08:39:20.879Z,17.10
2022-11-08T08:40:22.545Z,17.20
2022-11-08T08:41:24.204Z,16.87
2022-11-08T08:42:25.892Z,15.13
2022-11-08T08:43:28.707Z,16.80
2022-11-08T08:44:30.377Z,13.30
2022-11-08T08:45:33.456Z,12.27
2022-11-08T08:46:35.131Z,13.57
2022-11-08T08:47:36.828Z,11.13
2022-11-08T08:48:38.909Z,15.70
2022-11-08T08:49:40.598Z,10.97
2022-11-08T08:50:42.386Z,15.13
2022-11-08T08:51:44.108Z,10.23
2022-11-08T08:52:46.427Z,11.27
2022-11-08T08:53:48.093Z,11.90
2022-11-08T08:54:49.852Z,8.87
2022-11-08T08:55:52.802Z,9.83
2022-11-08T08:56:54.484Z,11.03
2022-11-08T08:57:57.975Z,9.63
2022-11-08T09:01:44.267Z,12.93
2022-11-08T09:02:46.096Z,8.63
2022-11-08T09:03:47.853Z,9.73
2022-11-08T09:04:49.531Z,11.90
2022-11-08T09:05:51.234Z,9.30
2022-11-08T09:06:53.837Z,9.75
2022-11-08T09:07:56.120Z,9.37
2022-11-08T09:08:57.803Z,9.10
2022-11-08T09:09:59.756Z,10.53
2022-11-08T09:11:01.996Z,10.87
2022-11-08T09:12:03.851Z,8.00
2022-11-08T09:13:05.879Z,10.27
2022-11-08T09:14:07.602Z,7.07
2022-11-08T09:15:10.008Z,8.67
2022-11-08T09:16:13.680Z,11.10
2022-11-08T09:17:15.423Z,10.63
2022-11-08T09:18:17.650Z,8.65
2022-11-08T09:19:19.395Z,9.17
2022-11-08T09:20:21.274Z,9.23
2022-11-08T09:21:22.993Z,7.40
2022-11-08T09:22:24.789Z,9.70
2022-11-08T09:23:26.697Z,11.03
2022-11-08T09:24:28.437Z,12.00
2022-11-08T09:25:30.238Z,8.60
2022-11-08T09:26:31.916Z,8.70
2022-11-08T09:27:33.709Z,6.90
2022-11-08T09:28:36.928Z,8.33
2022-11-08T09:29:38.579Z,7.93
2022-11-08T09:30:40.285Z,9.63
2022-11-08T09:31:41.978Z,9.27
2022-11-08T09:33:00.481Z,7.37
2022-11-08T09:35:09.814Z,8.15
2022-11-08T09:36:13.826Z,8.70
2022-11-08T09:37:15.524Z,9.43
2022-11-08T09:38:17.568Z,10.70
2022-11-08T09:39:19.457Z,7.93
2022-11-08T09:40:30.135Z,7.45
2022-11-08T09:41:40.745Z,11.32
2022-11-08T09:43:17.218Z,9.68
2022-11-08T09:44:46.314Z,8.23
2022-11-08T09:45:50.666Z,6.82
2022-11-08T09:47:14.600Z,7.63
2022-11-08T09:48:50.384Z,9.07
2022-11-08T09:50:17.067Z,9.40
2022-11-08T09:51:22.554Z,7.30
2022-11-08T09:52:27.042Z,10.20
2022-11-08T09:53:39.498Z,7.30
2022-11-08T09:54:47.561Z,9.33
2022-11-08T09:55:55.125Z,12.00
2022-11-08T09:56:57.568Z,9.20
2022-11-08T09:58:13.021Z,8.77
2022-11-08T09:59:38.066Z,6.13
2022-11-08T10:00:40.605Z,11.75
2022-11-08T10:01:42.736Z,7.68
2022-11-08T10:02:44.563Z,7.85
2022-11-08T10:03:53.761Z,6.10
2022-11-08T10:05:02.320Z,7.35
2022-11-08T10:06:19.204Z,7.95
2022-11-08T10:07:28.988Z,10.15
2022-11-08T10:08:37.216Z,8.45
2022-11-08T10:10:01.053Z,11.15
2022-11-08T10:11:45.974Z,7.25
2022-11-08T10:13:01.212Z,6.13
2022-11-08T10:14:15.244Z,7.88
2022-11-08T10:15:45.014Z,7.82
2022-11-08T10:17:11.359Z,8.57
2022-11-08T10:18:34.270Z,7.38
2022-11-08T10:19:38.762Z,7.43
2022-11-08T10:20:46.575Z,7.82
2022-11-08T10:21:59.466Z,11.02
2022-11-08T10:23:22.049Z,13.80
2022-11-08T10:24:52.616Z,9.32
2022-11-08T10:26:04.500Z,8.00
2022-11-08T10:27:23.964Z,7.55
2022-11-08T10:28:41.721Z,9.73
2022-11-08T10:29:49.527Z,8.07
2022-11-08T10:30:53.385Z,6.72
2022-11-08T10:32:20.174Z,16.08
2022-11-08T10:33:54.511Z,10.40
2022-11-08T10:35:12.441Z,9.38
2022-11-08T10:36:21.130Z,6.68
2022-11-08T10:37:24.131Z,8.40
2022-11-08T10:38:42.830Z,8.80
2022-11-08T10:39:58.538Z,8.55
2022-11-08T10:41:29.643Z,9.30
2022-11-08T10:42:36.893Z,8.90
2022-11-08T10:43:44.713Z,8.70
2022-11-08T10:44:46.860Z,7.28
2022-11-08T10:45:48.583Z,5.70
2022-11-08T10:46:50.225Z,6.45
2022-11-08T10:47:53.164Z,7.28
2022-11-08T10:48:59.033Z,8.60
2022-11-08T10:50:03.911Z,9.88
2022-11-08T10:51:06.220Z,9.15
2022-11-08T10:52:32.459Z,7.43
2022-11-08T10:53:34.965Z,10.02
2022-11-08T10:54:50.000Z,7.25
2022-11-08T10:55:58.786Z,9.07
2022-11-08T10:57:00.463Z,6.78
2022-11-08T10:58:02.365Z,10.63
2022-11-08T10:59:04.028Z,7.40
2022-11-08T11:00:35.292Z,8.95
2022-11-08T11:01:44.865Z,17.27
2022-11-08T11:02:55.824Z,11.32
2022-11-08T11:03:57.725Z,9.55
2022-11-08T11:05:21.918Z,10.57
2022-11-08T11:06:32.545Z,6.20
2022-11-08T11:07:36.563Z,7.28
2022-11-08T11:08:54.026Z,5.60
2022-11-08T11:09:55.946Z,5.35
2022-11-08T11:11:22.361Z,6.10
2022-11-08T11:12:24.243Z,5.53
2022-11-08T11:13:29.034Z,5.13
2022-11-08T11:14:30.725Z,8.77
2022-11-08T11:15:46.517Z,4.20
2022-11-08T11:16:56.388Z,6.47
2022-11-08T11:17:58.161Z,5.53
2022-11-08T11:19:02.057Z,7.38
2022-11-08T11:20:04.259Z,2.90
2022-11-08T11:21:20.758Z,4.88
2022-11-08T11:22:33.663Z,3.72
2022-11-08T11:23:36.949Z,8.30
2022-11-08T11:24:51.696Z,2.55
2022-11-08T11:25:53.437Z,10.85
2022-11-08T11:26:57.866Z,6.03
2022-11-08T11:28:00.815Z,8.73
2022-11-08T11:29:17.012Z,5.70
2022-11-08T11:30:28.284Z,7.95
2022-11-08T11:31:31.337Z,6.72
2022-11-08T11:32:34.809Z,4.50
2022-11-08T11:33:44.602Z,4.85
2022-11-08T11:34:50.810Z,7.82
2022-11-08T11:35:55.450Z,8.05
2022-11-08T11:37:19.308Z,3.50
2022-11-08T11:38:47.509Z,3.22
2022-11-08T11:40:03.483Z,7.10
2022-11-08T11:41:14.322Z,3.70
2022-11-08T11:42:49.622Z,4.07
2022-11-08T11:44:01.329Z,4.43
2022-11-08T11:45:05.883Z,4.82
2022-11-08T11:46:20.880Z,7.63
2022-11-08T11:47:39.419Z,6.70
2022-11-08T11:48:59.955Z,5.10
2022-11-08T11:50:15.358Z,10.02
2022-11-08T11:51:17.184Z,7.78
2022-11-08T11:52:19.620Z,5.63
2022-11-08T11:53:32.927Z,7.22
2022-11-08T11:54:35.375Z,7.45
2022-11-08T11:56:08.234Z,4.85
2022-11-08T11:57:39.349Z,4.68
2022-11-08T11:58:58.131Z,6.47
2022-11-08T12:00:09.623Z,6.60
2022-11-08T12:01:25.170Z,9.38
2022-11-08T12:03:16.648Z,7.47
2022-11-08T12:04:40.503Z,4.93
2022-11-08T12:06:20.301Z,8.52
2022-11-08T12:07:30.690Z,10.93
2022-11-08T12:08:32.332Z,9.23
2022-11-08T12:10:03.269Z,7.60
2022-11-08T12:11:28.023Z,7.00
2022-11-08T12:13:03.559Z,8.93
2022-11-08T12:14:23.520Z,7.93
2022-11-08T12:15:35.239Z,9.02
2022-11-08T12:16:39.961Z,9.73
2022-11-08T12:18:00.432Z,8.13
2022-11-08T12:19:19.930Z,7.47
2022-11-08T12:20:34.566Z,7.03
2022-11-08T12:21:57.442Z,6.25
2022-11-08T12:23:24.765Z,8.48
2022-11-08T12:25:03.236Z,8.40
2022-11-08T12:26:07.879Z,8.60
2022-11-08T12:27:45.177Z,6.70
2022-11-08T12:29:03.131Z,12.25
2022-11-08T12:30:15.674Z,5.63
2022-11-08T12:31:47.339Z,6.07
2022-11-08T12:33:20.801Z,6.00
2022-11-08T12:34:30.252Z,6.25
2022-11-08T12:35:44.677Z,5.75
2022-11-08T12:36:58.213Z,5.63
2022-11-08T12:38:47.124Z,5.70
2022-11-08T12:40:00.598Z,4.93
2022-11-08T12:41:08.404Z,7.18
2022-11-08T12:42:22.045Z,4.35
2022-11-08T12:44:04.708Z,6.43
2022-11-08T12:45:30.303Z,3.67
2022-11-08T12:46:47.699Z,8.80
2022-11-08T12:48:10.498Z,5.10
2022-11-08T12:49:36.621Z,8.90
2022-11-08T12:51:04.818Z,6.20
2022-11-08T12:52:32.889Z,11.20
2022-11-08T12:54:00.902Z,8.38
2022-11-08T12:55:05.203Z,6.25
2022-11-08T12:56:18.778Z,5.03
2022-11-08T12:57:27.529Z,7.13
2022-11-08T12:58:34.351Z,5.18
2022-11-08T12:59:44.590Z,7.90
2022-11-08T13:00:48.474Z,5.97
2022-11-08T13:01:51.534Z,4.82
2022-11-08T13:03:18.326Z,4.53
2022-11-08T13:04:31.708Z,4.63
2022-11-08T13:05:43.908Z,6.13
2022-11-08T13:06:52.140Z,4.10
2022-11-08T13:08:18.288Z,6.50
2022-11-08T13:09:20.115Z,6.18
2022-11-08T13:10:27.788Z,4.68
2022-11-08T13:11:38.819Z,5.70
2022-11-08T13:12:55.545Z,3.38
2022-11-08T13:14:01.413Z,7.13
2022-11-08T13:15:04.009Z,6.88
2022-11-08T13:16:23.535Z,3.40
2022-11-08T13:17:27.221Z,7.45
2022-11-08T13:18:42.575Z,5.57
2022-11-08T13:19:47.088Z,8.32
2022-11-08T13:20:50.108Z,8.27
2022-11-08T13:21:51.902Z,6.53
2022-11-08T13:22:58.827Z,9.15
2022-11-08T13:24:37.934Z,8.35
2022-11-08T13:25:35.088Z,7.57
2022-11-08T13:26:43.738Z,7.80
2022-11-08T13:27:46.342Z,10.30
2022-11-08T13:28:48.743Z,10.85
2022-11-08T13:29:51.883Z,9.18
2022-11-08T13:31:03.621Z,10.75
2022-11-08T13:32:18.559Z,10.82
2022-11-08T13:33:30.592Z,10.65
2022-11-08T13:34:59.927Z,12.05
2022-11-08T13:36:10.556Z,15.30
2022-11-08T13:37:33.604Z,11.13
2022-11-08T13:38:47.631Z,11.57
2022-11-08T13:40:14.384Z,8.38
2022-11-08T13:41:19.014Z,9.77
2022-11-08T13:42:20.628Z,9.10
2022-11-08T13:43:31.343Z,9.73
2022-11-08T13:44:54.802Z,9.07
2022-11-08T13:46:22.881Z,9.90
2022-11-08T13:47:33.558Z,8.57
2022-11-08T13:48:40.054Z,7.55
2022-11-08T13:49:41.765Z,9.88
2022-11-08T13:50:58.065Z,7.53
2022-11-08T13:52:37.268Z,7.90
2022-11-08T13:53:45.176Z,6.82
2022-11-08T13:54:51.260Z,7.55
2022-11-08T13:55:59.231Z,5.18
2022-11-08T13:57:02.269Z,5.57
2022-11-08T13:58:04.032Z,6.57
2022-11-08T13:59:31.865Z,8.68
2022-11-08T14:00:43.159Z,5.45
2022-11-08T14:01:48.002Z,10.82
2022-11-08T14:02:49.783Z,7.55
2022-11-08T14:03:51.449Z,6.05
2022-11-08T14:04:54.505Z,5.38
2022-11-08T14:05:57.216Z,5.63
2022-11-08T14:07:10.573Z,5.75
2022-11-08T14:08:18.292Z,5.18
2022-11-08T14:09:42.207Z,6.43
2022-11-08T14:11:14.674Z,3.75
2022-11-08T14:12:39.294Z,5.95
2022-11-08T14:14:12.622Z,5.07
2022-11-08T14:15:27.707Z,5.25
2022-11-08T14:16:34.858Z,6.28
2022-11-08T14:17:44.810Z,5.85
2022-11-08T14:18:46.608Z,5.85
2022-11-08T14:19:48.532Z,5.97
2022-11-08T14:20:50.786Z,6.90
2022-11-08T14:21:56.170Z,6.82
2022-11-08T14:23:04.303Z,7.60
2022-11-08T14:24:12.461Z,8.27
2022-11-08T14:25:27.128Z,5.97
2022-11-08T14:26:31.112Z,8.55
2022-11-08T14:27:36.507Z,5.53
2022-11-08T14:28:41.248Z,6.30
2022-11-08T14:29:43.119Z,9.07
2022-11-08T14:30:50.763Z,8.25
2022-11-08T14:32:18.374Z,7.32
2022-11-08T14:33:28.137Z,7.93
2022-11-08T14:34:32.805Z,8.15
2022-11-08T14:35:34.661Z,9.65
2022-11-08T14:36:36.395Z,10.43
2022-11-08T14:37:38.578Z,8.80
2022-11-08T14:39:04.842Z,8.18